createdAt,value
2018-11-28T00:00:44.416Z,19.60
2018-11-28T00:03:11.580Z,18.87
2018-11-28T00:05:38.753Z,16.20
2018-11-28T00:08:05.956Z,17.07
2018-11-28T00:10:33.131Z,21.12
2018-11-28T00:13:00.268Z,24.67
2018-11-28T00:15:27.432Z,21.35
2018-11-28T00:17:54.586Z,29.10
2018-11-28T00:20:22.591Z,24.18
2018-11-28T00:22:49.736Z,13.38
2018-11-28T00:25:17.377Z,16.30
2018-11-28T00:27:44.595Z,19.40
2018-11-28T00:30:13.667Z,28.47
2018-11-28T00:32:41.156Z,20.08
2018-11-28T00:35:10.620Z,19.55
2018-11-28T00:37:37.759Z,21.90
2018-11-28T00:40:05.999Z,19.60
2018-11-28T00:42:33.131Z,17.17
2018-11-28T00:45:00.244Z,19.95
2018-11-28T00:47:27.360Z,32.75
2018-11-28T00:49:54.522Z,19.12
2018-11-28T00:52:21.715Z,14.95
2018-11-28T00:54:48.880Z,18.90
2018-11-28T00:57:16.047Z,23.80
2018-11-28T00:59:43.220Z,18.20
2018-11-28T01:02:10.415Z,19.00
2018-11-28T01:04:37.576Z,9.40
2018-11-28T01:07:05.504Z,21.68
2018-11-28T01:09:32.663Z,26.57
2018-11-28T01:11:59.837Z,24.18
2018-11-28T01:14:27.028Z,26.05
2018-11-28T01:16:54.180Z,18.70
2018-11-28T01:19:21.324Z,24.10
2018-11-28T01:21:48.471Z,21.60
2018-11-28T01:24:15.628Z,21.45
2018-11-28T01:26:42.800Z,18.52
2018-11-28T01:29:09.952Z,16.07
2018-11-28T01:31:37.116Z,18.10
2018-11-28T01:34:04.753Z,21.42
2018-11-28T01:36:31.869Z,15.85
2018-11-28T01:38:59.007Z,18.73
2018-11-28T01:41:26.131Z,16.48
2018-11-28T01:43:53.238Z,16.77
2018-11-28T01:46:20.367Z,24.12
2018-11-28T01:48:47.523Z,18.90
2018-11-28T01:51:14.636Z,14.98
2018-11-28T01:53:41.760Z,16.95
2018-11-28T01:56:08.887Z,20.50
2018-11-28T01:58:36.008Z,19.05
2018-11-28T02:01:03.284Z,16.05
2018-11-28T02:03:30.425Z,29.42
2018-11-28T02:05:57.588Z,21.27
2018-11-28T02:08:24.700Z,20.35
2018-11-28T02:10:51.838Z,13.32
2018-11-28T02:13:18.947Z,17.30
2018-11-28T02:15:46.088Z,18.80
2018-11-28T02:18:13.269Z,22.65
2018-11-28T02:20:40.364Z,22.58
2018-11-28T02:23:07.492Z,22.62
2018-11-28T02:25:34.640Z,22.05
2018-11-28T02:28:01.772Z,23.65
2018-11-28T02:30:28.933Z,18.23
2018-11-28T02:32:56.146Z,18.25
2018-11-28T02:35:23.281Z,16.80
2018-11-28T02:37:50.520Z,19.25
2018-11-28T02:40:18.330Z,14.33
2018-11-28T02:42:46.111Z,20.45
2018-11-28T02:45:15.102Z,21.77
2018-11-28T02:47:42.253Z,13.35
2018-11-28T02:50:09.443Z,21.35
2018-11-28T02:52:36.591Z,22.85
2018-11-28T02:55:04.115Z,21.17
2018-11-28T02:57:31.279Z,11.50
2018-11-28T02:59:58.427Z,21.75
2018-11-28T03:02:25.609Z,22.20
2018-11-28T03:04:52.760Z,22.13
2018-11-28T03:07:19.928Z,20.02
2018-11-28T03:09:47.072Z,12.73
2018-11-28T03:12:14.187Z,18.48
2018-11-28T03:14:41.508Z,13.30
2018-11-28T03:17:13.263Z,10.63
2018-11-28T03:19:40.444Z,19.42
2018-11-28T03:22:07.627Z,16.42
2018-11-28T03:24:34.777Z,17.12
2018-11-28T03:27:01.909Z,15.70
2018-11-28T03:29:29.038Z,17.80
2018-11-28T03:31:56.187Z,21.23
2018-11-28T03:34:23.372Z,22.65
2018-11-28T03:36:50.567Z,23.57
2018-11-28T03:39:17.777Z,20.85
2018-11-28T03:41:44.987Z,24.27
2018-11-28T03:44:12.136Z,24.67
2018-11-28T03:46:39.328Z,17.90
2018-11-28T03:49:06.552Z,25.70
2018-11-28T03:51:33.712Z,15.70
2018-11-28T03:54:00.880Z,23.38
2018-11-28T03:56:28.072Z,14.35
2018-11-28T03:58:55.279Z,37.25
2018-11-28T04:01:22.448Z,21.80
2018-11-28T04:03:49.634Z,25.23
2018-11-28T04:06:16.832Z,18.15
2018-11-28T04:08:44.024Z,18.98
2018-11-28T04:11:11.234Z,21.90
2018-11-28T04:13:38.416Z,19.02
2018-11-28T04:16:06.000Z,22.73
2018-11-28T04:18:33.195Z,20.50
2018-11-28T04:21:00.396Z,22.45
2018-11-28T04:23:27.555Z,25.80
2018-11-28T04:25:54.727Z,18.10
2018-11-28T04:28:21.898Z,20.92
2018-11-28T04:30:49.060Z,19.57
2018-11-28T04:33:16.199Z,21.02
2018-11-28T04:35:43.336Z,24.50
2018-11-28T04:38:10.476Z,26.25
2018-11-28T04:40:37.649Z,18.35
2018-11-28T04:43:04.824Z,19.73
2018-11-28T04:45:31.989Z,24.27
2018-11-28T04:47:59.119Z,23.10
2018-11-28T04:50:26.280Z,19.10
2018-11-28T04:52:53.436Z,22.00
2018-11-28T04:55:20.612Z,20.72
2018-11-28T04:57:47.903Z,20.00
2018-11-28T05:00:17.139Z,25.72
2018-11-28T05:02:44.286Z,26.55
2018-11-28T05:05:11.455Z,18.37
2018-11-28T05:07:39.316Z,16.02
2018-11-28T05:10:09.484Z,18.25
2018-11-28T05:12:36.669Z,19.50
2018-11-28T05:15:04.937Z,19.73
2018-11-28T05:17:32.151Z,27.55
2018-11-28T05:19:59.417Z,18.15
2018-11-28T05:22:26.553Z,15.70
2018-11-28T05:24:53.864Z,15.38
2018-11-28T05:27:21.028Z,22.65
2018-11-28T05:29:48.168Z,21.82
2018-11-28T05:32:15.310Z,20.37
2018-11-28T05:34:42.456Z,25.20
2018-11-28T05:37:09.620Z,25.23
2018-11-28T05:39:36.787Z,12.25
2018-11-28T05:42:04.192Z,18.98
2018-11-28T05:44:31.345Z,23.85
2018-11-28T05:46:58.491Z,18.57
2018-11-28T05:49:25.655Z,17.27
2018-11-28T05:51:52.797Z,18.35
2018-11-28T05:54:20.331Z,14.60
2018-11-28T05:56:47.140Z,22.77
2018-11-28T05:59:14.300Z,28.95
2018-11-28T06:01:41.424Z,26.75
2018-11-28T06:04:08.586Z,24.63
2018-11-28T06:06:35.758Z,14.80
2018-11-28T06:09:04.205Z,21.40
2018-11-28T06:11:31.329Z,27.17
2018-11-28T06:13:58.468Z,25.70
2018-11-28T06:16:25.596Z,15.65
2018-11-28T06:18:52.787Z,18.65
2018-11-28T06:21:19.940Z,20.05
2018-11-28T06:23:47.122Z,15.18
2018-11-28T06:26:14.300Z,18.48
2018-11-28T06:28:41.424Z,17.27
2018-11-28T06:31:08.576Z,15.68
2018-11-28T06:33:35.716Z,20.82
2018-11-28T06:36:02.888Z,20.55
2018-11-28T06:38:30.001Z,21.87
2018-11-28T06:40:57.163Z,23.25
2018-11-28T06:43:24.285Z,27.27
2018-11-28T06:45:51.421Z,20.45
2018-11-28T06:48:18.538Z,18.93
2018-11-28T06:50:45.685Z,21.00
2018-11-28T06:53:12.852Z,12.60
2018-11-28T06:55:40.028Z,22.42
2018-11-28T06:58:07.179Z,19.62
2018-11-28T07:00:34.407Z,12.78
2018-11-28T07:03:01.531Z,18.32
2018-11-28T07:05:28.724Z,24.55
2018-11-28T07:07:55.856Z,19.17
2018-11-28T07:10:23.008Z,21.80
2018-11-28T07:12:50.201Z,13.00
2018-11-28T07:15:22.383Z,13.60
2018-11-28T07:17:49.513Z,32.23
2018-11-28T07:20:16.791Z,26.62
2018-11-28T07:22:43.963Z,17.07
2018-11-28T07:25:15.995Z,34.25
2018-11-28T07:27:45.429Z,31.57
2018-11-28T07:30:14.568Z,29.48
2018-11-28T07:32:41.748Z,22.32
2018-11-28T07:35:09.568Z,14.73
2018-11-28T07:37:36.883Z,21.60
2018-11-28T07:40:11.941Z,22.62
2018-11-28T07:42:39.354Z,26.30
2018-11-28T07:45:09.167Z,20.70
2018-11-28T07:47:36.324Z,18.67
2018-11-28T07:50:03.775Z,25.10
2018-11-28T07:52:30.888Z,21.73
2018-11-28T07:54:58.013Z,17.95
2018-11-28T07:57:25.181Z,22.20
2018-11-28T07:59:52.315Z,16.87
2018-11-28T08:02:19.447Z,22.67
2018-11-28T08:04:46.639Z,20.93
2018-11-28T08:07:13.788Z,17.12
2018-11-28T08:09:40.917Z,22.17
2018-11-28T08:12:08.087Z,27.30
2018-11-28T08:14:35.215Z,19.52
2018-11-28T08:17:02.366Z,21.45
2018-11-28T08:19:29.507Z,19.27
2018-11-28T08:21:56.648Z,24.10
2018-11-28T08:24:23.776Z,26.97
2018-11-28T08:26:50.903Z,16.80
2018-11-28T08:29:18.026Z,20.90
2018-11-28T08:31:45.204Z,27.17
2018-11-28T08:34:12.384Z,19.60
2018-11-28T08:36:39.548Z,22.87
2018-11-28T08:39:07.093Z,11.23
2018-11-28T08:41:34.252Z,22.10
2018-11-28T08:44:01.415Z,22.77
2018-11-28T08:46:28.572Z,21.77
2018-11-28T08:48:56.727Z,19.17
2018-11-28T08:51:23.948Z,16.27
2018-11-28T08:53:51.131Z,19.23
2018-11-28T08:56:18.286Z,21.70
2018-11-28T08:58:45.440Z,19.97
2018-11-28T09:01:12.592Z,23.97
2018-11-28T09:03:39.738Z,22.30
2018-11-28T09:06:06.931Z,21.30
2018-11-28T09:08:34.108Z,20.07
2018-11-28T09:11:01.263Z,17.60
2018-11-28T09:13:28.374Z,21.77
2018-11-28T09:15:55.537Z,21.93
2018-11-28T09:18:22.651Z,17.37
2018-11-28T09:20:49.779Z,18.87
2018-11-28T09:23:16.959Z,17.83
2018-11-28T09:25:44.067Z,25.00
2018-11-28T09:28:11.216Z,23.30
2018-11-28T09:30:38.364Z,18.73
2018-11-28T09:33:05.545Z,18.53
2018-11-28T09:35:32.712Z,17.00
2018-11-28T09:37:59.913Z,26.77
2018-11-28T09:40:27.036Z,21.20
2018-11-28T09:42:55.462Z,23.83
2018-11-28T09:45:22.594Z,21.63
2018-11-28T09:47:49.758Z,20.10
2018-11-28T09:50:24.585Z,21.83
2018-11-28T09:52:51.785Z,17.97
2018-11-28T09:55:21.058Z,26.27
2018-11-28T09:57:48.251Z,20.67
2018-11-28T10:00:24.860Z,25.73
2018-11-28T10:02:53.068Z,29.40
2018-11-28T10:05:21.440Z,24.30
2018-11-28T10:07:48.660Z,17.63
2018-11-28T10:10:15.843Z,17.63
2018-11-28T10:12:43.019Z,19.03
2018-11-28T10:15:13.748Z,20.23
2018-11-28T10:17:41.017Z,22.07
2018-11-28T10:20:09.537Z,19.17
2018-11-28T10:22:36.684Z,19.73
2018-11-28T10:25:04.462Z,25.40
2018-11-28T10:27:31.624Z,48.33
2018-11-28T10:29:58.785Z,26.73
2018-11-28T10:32:25.915Z,25.30
2018-11-28T10:34:53.067Z,16.13
2018-11-28T10:37:20.244Z,18.70
2018-11-28T10:39:47.411Z,20.30
2018-11-28T10:42:14.602Z,15.90
2018-11-28T10:44:41.808Z,31.07
2018-11-28T10:47:08.986Z,21.90
2018-11-28T10:49:36.175Z,23.10
2018-11-28T10:52:03.353Z,26.13
2018-11-28T10:54:30.547Z,16.47
2018-11-28T10:56:57.732Z,16.90
2018-11-28T10:59:24.884Z,17.63
2018-11-28T11:01:56.671Z,14.77
2018-11-28T11:04:24.785Z,17.90
2018-11-28T11:08:01.016Z,18.93
2018-11-28T11:10:34.008Z,18.53
2018-11-28T11:13:07.251Z,8.20
2018-11-28T11:15:34.432Z,13.53
2018-11-28T11:18:02.174Z,21.63
2018-11-28T11:20:28.820Z,17.50
2018-11-28T11:22:56.060Z,12.90
2018-11-28T11:25:23.249Z,18.57
2018-11-28T11:27:50.455Z,15.73
2018-11-28T11:30:17.636Z,16.10
2018-11-28T11:32:44.844Z,20.97
2018-11-28T11:35:12.017Z,19.77
2018-11-28T11:37:39.196Z,16.60
2018-11-28T11:40:09.140Z,22.20
2018-11-28T11:42:36.343Z,17.40
2018-11-28T11:45:04.055Z,17.63
2018-11-28T11:47:31.205Z,14.67
2018-11-28T11:49:58.409Z,18.17
2018-11-28T11:52:25.590Z,16.97
2018-11-28T11:54:52.785Z,15.70
2018-11-28T11:57:19.977Z,14.80
2018-11-28T11:59:47.156Z,18.67
2018-11-28T12:02:14.389Z,20.00
2018-11-28T12:04:41.592Z,16.50
2018-11-28T12:07:08.780Z,15.03
2018-11-28T12:09:35.961Z,22.67
2018-11-28T12:12:03.121Z,13.37
2018-11-28T12:14:30.299Z,14.47
2018-11-28T12:16:57.484Z,19.83
2018-11-28T12:19:24.675Z,15.80
2018-11-28T12:21:51.865Z,16.77
2018-11-28T12:24:19.015Z,14.07
2018-11-28T12:26:46.183Z,20.17
2018-11-28T12:29:13.342Z,15.30
2018-11-28T12:31:40.504Z,18.57
2018-11-28T12:34:07.684Z,16.40
2018-11-28T12:36:34.859Z,14.43
2018-11-28T12:39:02.052Z,8.47
2018-11-28T12:41:29.252Z,13.70
2018-11-28T12:43:56.405Z,14.40
2018-11-28T12:46:23.609Z,15.10
2018-11-28T12:48:50.830Z,16.17
2018-11-28T12:51:17.940Z,18.60
2018-11-28T12:53:45.098Z,14.30
2018-11-28T12:56:12.255Z,16.57
2018-11-28T12:58:39.407Z,17.97
2018-11-28T13:01:06.573Z,17.90
2018-11-28T13:03:33.751Z,9.03
2018-11-28T13:06:00.930Z,13.13
2018-11-28T13:08:28.136Z,13.40
2018-11-28T13:10:55.287Z,19.20
2018-11-28T13:13:22.489Z,14.90
2018-11-28T13:15:49.621Z,16.73
2018-11-28T13:18:16.777Z,15.27
2018-11-28T13:20:43.927Z,16.73
2018-11-28T13:23:12.367Z,19.60
2018-11-28T13:25:39.547Z,16.33
2018-11-28T13:28:06.836Z,13.50
2018-11-28T13:30:34.020Z,13.03
2018-11-28T13:33:01.151Z,15.40
2018-11-28T13:35:28.335Z,15.57
2018-11-28T13:38:00.522Z,17.27
2018-11-28T13:40:27.713Z,16.00
2018-11-28T13:42:54.859Z,16.40
2018-11-28T13:45:27.292Z,17.70
2018-11-28T13:47:54.769Z,12.60
2018-11-28T13:50:21.953Z,16.73
2018-11-28T13:52:49.840Z,13.77
2018-11-28T13:55:39.700Z,12.87
2018-11-28T13:58:01.769Z,14.00
2018-11-28T14:00:28.885Z,14.47
2018-11-28T14:02:56.000Z,18.60
2018-11-28T14:05:23.183Z,14.50
2018-11-28T14:07:50.368Z,21.30
2018-11-28T14:10:17.507Z,15.10
2018-11-28T14:12:44.644Z,14.10
2018-11-28T14:15:12.536Z,13.53
2018-11-28T14:17:39.728Z,13.57
2018-11-28T14:20:09.376Z,23.50
2018-11-28T14:22:37.430Z,18.50
2018-11-28T14:25:05.764Z,17.47
2018-11-28T14:27:32.903Z,16.30
2018-11-28T14:30:00.087Z,19.13
2018-11-28T14:32:27.268Z,17.30
2018-11-28T14:34:54.383Z,19.00
2018-11-28T14:37:21.500Z,14.77
2018-11-28T14:39:48.624Z,17.70
2018-11-28T14:42:15.755Z,17.47
2018-11-28T14:44:42.973Z,15.47
2018-11-28T14:47:10.102Z,15.50
2018-11-28T14:49:37.249Z,15.43
2018-11-28T14:52:04.491Z,13.40
2018-11-28T14:54:31.629Z,24.70
2018-11-28T14:56:59.751Z,20.50
2018-11-28T14:59:26.868Z,19.20
2018-11-28T15:01:54.003Z,20.20
2018-11-28T15:04:21.120Z,17.13
2018-11-28T15:06:51.974Z,18.50
2018-11-28T15:09:24.928Z,16.47
2018-11-28T15:11:52.046Z,17.87
2018-11-28T15:14:19.168Z,18.53
2018-11-28T15:16:46.288Z,24.23
2018-11-28T15:19:13.409Z,17.70
2018-11-28T15:21:40.535Z,24.07
2018-11-28T15:24:07.673Z,23.80
2018-11-28T15:26:34.859Z,18.67
2018-11-28T15:29:02.535Z,18.43
2018-11-28T15:31:29.760Z,19.07
2018-11-28T15:33:56.880Z,23.30
2018-11-28T15:36:23.995Z,16.80
2018-11-28T15:38:51.111Z,22.03
2018-11-28T15:41:18.260Z,21.47
2018-11-28T15:43:45.384Z,18.60
2018-11-28T15:46:14.850Z,18.50
2018-11-28T15:48:39.601Z,21.23
2018-11-28T15:51:06.759Z,15.60
2018-11-28T15:53:33.900Z,24.23
2018-11-28T15:56:01.196Z,22.73
2018-11-28T15:58:28.304Z,23.80
2018-11-28T16:00:55.475Z,17.00
2018-11-28T16:03:22.619Z,21.70
2018-11-28T16:05:49.753Z,18.17
2018-11-28T16:08:16.913Z,19.63
2018-11-28T16:10:44.072Z,21.53
2018-11-28T16:13:13.597Z,17.97
2018-11-28T16:15:46.583Z,15.90
2018-11-28T16:18:13.720Z,21.57
2018-11-28T16:20:40.855Z,21.63
2018-11-28T16:23:07.986Z,16.93
2018-11-28T16:25:35.114Z,20.60
2018-11-28T16:28:02.593Z,17.07
2018-11-28T16:30:29.756Z,16.13
2018-11-28T16:32:56.920Z,15.53
2018-11-28T16:35:24.050Z,22.63
2018-11-28T16:37:51.188Z,18.93
2018-11-28T16:40:18.319Z,21.53
2018-11-28T16:42:45.427Z,23.20
2018-11-28T16:45:13.760Z,20.90
2018-11-28T16:47:40.932Z,13.63
2018-11-28T16:50:08.749Z,23.67
2018-11-28T16:52:35.897Z,21.97
2018-11-28T16:55:03.208Z,17.77
2018-11-28T16:57:30.336Z,22.83
2018-11-28T16:59:57.452Z,24.23
2018-11-28T17:02:24.580Z,21.67
2018-11-28T17:04:51.696Z,14.87
2018-11-28T17:07:18.840Z,18.30
2018-11-28T17:09:45.996Z,19.00
2018-11-28T17:12:13.124Z,14.47
2018-11-28T17:14:40.308Z,14.33
2018-11-28T17:17:07.416Z,22.53
2018-11-28T17:19:34.553Z,15.23
2018-11-28T17:22:01.692Z,20.80
2018-11-28T17:24:28.828Z,15.33
2018-11-28T17:26:55.991Z,20.17
2018-11-28T17:29:23.124Z,19.20
2018-11-28T17:31:50.251Z,20.97
2018-11-28T17:34:17.383Z,19.20
2018-11-28T17:36:44.517Z,15.37
2018-11-28T17:39:11.963Z,19.87
2018-11-28T17:41:39.318Z,21.97
2018-11-28T17:44:06.468Z,15.77
2018-11-28T17:46:33.612Z,18.37
2018-11-28T17:49:00.836Z,18.13
2018-11-28T17:51:27.969Z,27.23
2018-11-28T17:53:55.120Z,16.03
2018-11-28T17:56:22.268Z,14.30
2018-11-28T17:58:49.408Z,14.20
2018-11-28T18:01:16.589Z,19.77
2018-11-28T18:03:43.760Z,19.13
2018-11-28T18:06:10.933Z,22.53
2018-11-28T18:08:38.084Z,16.53
2018-11-28T18:11:12.528Z,15.73
2018-11-28T18:13:40.155Z,13.93
2018-11-28T18:16:07.318Z,18.03
2018-11-28T18:18:34.483Z,6.43
2018-11-28T18:21:01.691Z,16.55
2018-11-28T18:23:28.918Z,15.17
2018-11-28T18:25:56.112Z,19.33
2018-11-28T18:28:23.280Z,14.77
2018-11-28T18:30:50.443Z,10.90
2018-11-28T18:33:17.631Z,14.43
2018-11-28T18:35:44.921Z,19.93
2018-11-28T18:38:12.108Z,20.20
2018-11-28T18:40:39.334Z,13.13
2018-11-28T18:43:08.205Z,19.23
2018-11-28T18:45:38.848Z,17.27
2018-11-28T18:48:06.117Z,13.00
2018-11-28T18:50:33.352Z,16.40
2018-11-28T18:53:00.540Z,13.13
2018-11-28T18:55:27.725Z,11.23
2018-11-28T18:57:55.556Z,13.00
2018-11-28T19:00:23.712Z,15.47
2018-11-28T19:02:51.264Z,10.57
2018-11-28T19:05:18.468Z,19.87
2018-11-28T19:07:45.664Z,15.03
2018-11-28T19:10:14.251Z,12.97
2018-11-28T19:12:41.439Z,17.07
2018-11-28T19:15:10.239Z,13.00
2018-11-28T19:17:37.433Z,13.17
2018-11-28T19:20:06.563Z,13.60
2018-11-28T19:22:33.711Z,14.50
2018-11-28T19:25:00.921Z,10.77
2018-11-28T19:27:28.056Z,12.97
2018-11-28T19:29:55.213Z,14.87
2018-11-28T19:32:22.356Z,10.67
2018-11-28T19:34:49.484Z,14.27
2018-11-28T19:37:16.617Z,13.17
2018-11-28T19:39:43.764Z,12.87
2018-11-28T19:42:10.907Z,9.70
2018-11-28T19:44:38.019Z,10.13
2018-11-28T19:47:05.191Z,12.20
2018-11-28T19:49:32.343Z,11.77
2018-11-28T19:51:59.476Z,10.47
2018-11-28T19:54:26.687Z,8.47
2018-11-28T19:56:53.855Z,12.53
2018-11-28T19:59:21.004Z,13.80
2018-11-28T20:01:48.175Z,9.63
2018-11-28T20:04:15.362Z,13.93
2018-11-28T20:06:42.570Z,8.63
2018-11-28T20:09:15.149Z,14.97
2018-11-28T20:11:42.308Z,9.33
2018-11-28T20:14:09.740Z,9.73
2018-11-28T20:16:36.918Z,7.93
2018-11-28T20:19:04.124Z,10.67
2018-11-28T20:21:31.313Z,8.53
2018-11-28T20:23:58.468Z,11.03
2018-11-28T20:26:25.644Z,11.57
2018-11-28T20:28:52.836Z,10.13
2018-11-28T20:31:20.006Z,9.30
2018-11-28T20:33:47.244Z,8.87
2018-11-28T20:36:14.436Z,6.93
2018-11-28T20:38:41.565Z,6.93
2018-11-28T20:41:08.780Z,7.77
2018-11-28T20:43:36.055Z,6.53
2018-11-28T20:46:03.228Z,7.27
2018-11-28T20:48:30.390Z,11.07
2018-11-28T20:50:57.595Z,7.00
2018-11-28T20:53:24.768Z,7.50
2018-11-28T20:55:52.037Z,8.33
2018-11-28T20:58:19.307Z,7.20
2018-11-28T21:00:46.551Z,6.53
2018-11-28T21:03:13.737Z,5.80
2018-11-28T21:05:41.006Z,7.47
2018-11-28T21:08:08.864Z,11.77
2018-11-28T21:10:37.081Z,18.73
2018-11-28T21:13:05.611Z,6.80
2018-11-28T21:15:32.825Z,8.87
2018-11-28T21:18:00.012Z,5.83
2018-11-28T21:20:27.159Z,7.30
2018-11-28T21:22:58.465Z,7.83
2018-11-28T21:25:25.672Z,6.63
2018-11-28T21:27:52.823Z,5.80
2018-11-28T21:30:20.190Z,8.47
2018-11-28T21:32:48.196Z,5.80
2018-11-28T21:35:18.229Z,6.90
2018-11-28T21:37:45.415Z,5.97
2018-11-28T21:40:13.253Z,5.77
2018-11-28T21:42:40.451Z,5.47
2018-11-28T21:45:09.953Z,5.63
2018-11-28T21:47:37.183Z,6.53
2018-11-28T21:50:07.508Z,8.43
2018-11-28T21:52:41.488Z,5.97
2018-11-28T21:55:10.808Z,7.73
2018-11-28T21:57:37.973Z,6.53
2018-11-28T22:00:08.928Z,6.43
2018-11-28T22:02:36.102Z,5.90
2018-11-28T22:05:03.459Z,5.10
2018-11-28T22:07:30.612Z,5.77
2018-11-28T22:09:57.844Z,3.33
2018-11-28T22:12:25.027Z,6.97
2018-11-28T22:14:52.175Z,4.37
2018-11-28T22:17:19.326Z,8.50
2018-11-28T22:19:46.560Z,5.73
2018-11-28T22:22:13.712Z,9.27
2018-11-28T22:24:40.860Z,7.47
2018-11-28T22:27:08.052Z,4.63
2018-11-28T22:29:35.189Z,4.80
2018-11-28T22:32:02.459Z,3.60
2018-11-28T22:34:29.625Z,6.77
2018-11-28T22:36:56.785Z,4.97
2018-11-28T22:39:23.955Z,4.53
2018-11-28T22:41:51.122Z,6.00
2018-11-28T22:44:18.283Z,5.43
2018-11-28T22:46:45.432Z,6.23
2018-11-28T22:49:12.581Z,5.63
2018-11-28T22:51:39.728Z,4.97
2018-11-28T22:54:06.856Z,4.87
2018-11-28T22:56:33.984Z,2.93
2018-11-28T22:59:01.143Z,5.37
2018-11-28T23:01:38.504Z,4.90
2018-11-28T23:04:05.694Z,5.73
2018-11-28T23:06:32.820Z,6.40
2018-11-28T23:08:59.956Z,5.80
2018-11-28T23:11:27.119Z,5.40
2018-11-28T23:13:55.041Z,6.53
2018-11-28T23:16:22.224Z,5.50
2018-11-28T23:18:49.404Z,4.47
2018-11-28T23:21:16.512Z,4.07
2018-11-28T23:23:43.659Z,4.93
2018-11-28T23:26:10.802Z,5.53
2018-11-28T23:28:37.915Z,5.03
2018-11-28T23:31:05.126Z,4.53
2018-11-28T23:33:32.303Z,5.00
2018-11-28T23:35:59.423Z,5.30
2018-11-28T23:38:26.543Z,6.00
2018-11-28T23:40:54.004Z,7.33
2018-11-28T23:43:21.130Z,5.00
2018-11-28T23:45:48.231Z,5.30
2018-11-28T23:48:15.356Z,5.30
2018-11-28T23:50:42.471Z,4.77
2018-11-28T23:53:09.709Z,4.23
2018-11-28T23:55:36.873Z,6.43
2018-11-28T23:58:04.056Z,7.20
